Time;durP1;ratioP1;P1;durP2;ratioP2;P2;SDS_P1;SDS_P2;PMS_P1;PMS_P2;Temp;Humidity;BMP_temperature;BMP_pressure;BME280_temperature;BME280_humidity;BME280_pressure;Samples;Min_cycle;Max_cycle;Signal;HPM_P1;HPM_P2
2023/02/15 00:01:35;;;;;;;18.30;11.37;;;3.50;77.00;;;;;;5080207;28;20462;-83
2023/02/15 00:04:04;;;;;;;16.40;10.57;;;3.50;80.30;;;;;;5076989;28;21016;-82
2023/02/15 00:06:31;;;;;;;18.10;10.60;;;3.50;89.50;;;;;;5077127;28;20478;-82
2023/02/15 00:08:58;;;;;;;21.50;12.63;;;3.40;91.10;;;;;;5080732;28;20625;-82
2023/02/15 00:11:40;;;;;;;23.67;11.10;;;3.40;88.40;;;;;;5078762;28;20473;-83
2023/02/15 00:14:08;;;;;;;17.67;11.07;;;3.40;96.60;;;;;;5070538;28;20495;-81
2023/02/15 00:16:36;;;;;;;19.57;12.00;;;3.30;87.50;;;;;;5079608;28;20414;-81
2023/02/15 00:19:04;;;;;;;18.77;11.70;;;3.30;83.10;;;;;;5059554;28;20535;-81
2023/02/15 00:21:32;;;;;;;23.13;12.30;;;3.30;91.20;;;;;;5069293;28;20466;-81
2023/02/15 00:24:01;;;;;;;18.70;12.03;;;3.30;86.40;;;;;;5079844;28;20450;-81
2023/02/15 00:26:31;;;;;;;20.10;11.70;;;3.20;91.30;;;;;;5079908;28;21078;-81
2023/02/15 00:28:59;;;;;;;19.23;11.37;;;3.20;93.80;;;;;;5078847;28;20501;-81
2023/02/15 00:31:26;;;;;;;19.77;10.90;;;3.10;96.80;;;;;;5073354;28;20463;-81
2023/02/15 00:33:53;;;;;;;20.13;11.10;;;3.10;99.90;;;;;;5082128;28;20523;-82
2023/02/15 00:36:21;;;;;;;22.20;11.40;;;3.10;99.90;;;;;;5082761;28;20418;-81
2023/02/15 00:38:48;;;;;;;20.17;10.53;;;3.10;99.90;;;;;;5083981;28;20507;-82
2023/02/15 00:41:15;;;;;;;18.83;11.10;;;3.10;99.90;;;;;;5087503;28;20503;-83
2023/02/15 00:43:42;;;;;;;20.87;12.20;;;3.10;99.90;;;;;;5091775;28;20508;-82
2023/02/15 00:46:08;;;;;;;18.97;11.57;;;3.00;99.90;;;;;;5088790;28;20530;-82
2023/02/15 00:48:35;;;;;;;16.70;11.70;;;3.00;99.90;;;;;;5087056;28;20475;-82
2023/02/15 00:51:02;;;;;;;16.07;10.50;;;3.00;99.90;;;;;;5072689;28;20535;-83
2023/02/15 00:53:31;;;;;;;23.77;11.90;;;3.00;99.90;;;;;;5088723;28;20422;-83
2023/02/15 00:56:00;;;;;;;17.20;10.90;;;3.00;99.90;;;;;;5088417;28;21000;-83
2023/02/15 00:58:27;;;;;;;22.80;11.70;;;2.90;99.90;;;;;;5086616;28;20450;-83
2023/02/15 01:00:54;;;;;;;20.50;10.80;;;2.90;99.90;;;;;;5085914;28;20852;-82
2023/02/15 01:03:22;;;;;;;18.50;11.80;;;2.90;99.90;;;;;;5086922;28;20508;-81
2023/02/15 01:05:50;;;;;;;18.33;10.93;;;2.90;99.90;;;;;;5079335;28;20547;-82
2023/02/15 01:08:17;;;;;;;22.27;11.90;;;2.90;99.90;;;;;;5086434;28;20475;-82
2023/02/15 01:10:46;;;;;;;17.73;11.53;;;2.80;99.90;;;;;;5077714;28;20453;-81
2023/02/15 01:13:15;;;;;;;19.70;11.70;;;2.80;99.90;;;;;;5083826;28;20546;-81
2023/02/15 01:15:42;;;;;;;20.60;12.53;;;2.80;99.90;;;;;;5082144;28;20434;-81
2023/02/15 01:18:08;;;;;;;22.87;13.20;;;2.80;99.90;;;;;;5084224;28;20422;-81
2023/02/15 01:20:38;;;;;;;19.43;11.67;;;2.70;99.90;;;;;;5076109;28;20827;-81
2023/02/15 01:23:06;;;;;;;18.20;12.47;;;2.70;99.90;;;;;;5076656;28;20427;-81
2023/02/15 01:25:35;;;;;;;18.33;11.67;;;2.70;99.90;;;;;;5082955;28;20458;-82
2023/02/15 01:28:04;;;;;;;18.67;11.90;;;2.60;99.90;;;;;;5081391;28;20443;-82
2023/02/15 01:30:30;;;;;;;18.10;10.97;;;2.60;99.90;;;;;;5074481;28;20558;-81
2023/02/15 01:32:57;;;;;;;22.97;12.57;;;2.60;99.90;;;;;;5081648;28;20432;-83
2023/02/15 01:35:24;;;;;;;22.47;15.30;;;2.60;99.90;;;;;;5082284;28;20422;-82
2023/02/15 01:37:51;;;;;;;17.67;11.13;;;2.50;99.90;;;;;;5083123;28;20774;-82
2023/02/15 01:40:19;;;;;;;18.90;11.97;;;2.40;99.90;;;;;;5073905;28;20464;-82
2023/02/15 01:42:46;;;;;;;18.93;11.80;;;2.50;99.90;;;;;;5078051;28;20452;-81
2023/02/15 01:45:21;;;;;;;19.63;12.77;;;2.50;99.90;;;;;;5078377;28;20465;-82
2023/02/15 01:47:53;;;;;;;21.83;11.80;;;2.40;99.90;;;;;;5078791;28;20917;-82
2023/02/15 01:50:25;;;;;;;21.37;13.93;;;2.50;99.90;;;;;;5073005;28;20459;-80
2023/02/15 01:52:56;;;;;;;23.80;13.27;;;2.50;99.90;;;;;;5078471;28;20442;-82
2023/02/15 01:55:25;;;;;;;22.43;13.50;;;2.40;99.90;;;;;;5077801;28;20425;-82
2023/02/15 01:57:53;;;;;;;21.73;11.80;;;2.40;99.90;;;;;;5064225;28;20469;-81
2023/02/15 02:00:22;;;;;;;21.40;11.30;;;2.30;99.90;;;;;;5064436;28;20461;-81
2023/02/15 02:02:53;;;;;;;24.53;12.67;;;2.20;99.90;;;;;;5078429;28;20417;-82
2023/02/15 02:05:19;;;;;;;19.63;12.60;;;2.30;99.90;;;;;;5077902;28;20489;-81
2023/02/15 02:07:49;;;;;;;18.80;10.83;;;2.20;99.90;;;;;;5072449;28;20495;-82
2023/02/15 02:10:18;;;;;;;21.93;11.87;;;2.20;99.90;;;;;;5074668;28;20457;-82
2023/02/15 02:12:48;;;;;;;22.47;11.00;;;2.20;99.90;;;;;;5076756;28;20448;-81
2023/02/15 02:15:15;;;;;;;23.57;12.10;;;2.20;99.90;;;;;;5074842;28;20444;-83
2023/02/15 02:17:56;;;;;;;19.60;12.17;;;2.20;99.90;;;;;;5079168;28;20484;-82
2023/02/15 02:20:32;;;;;;;15.70;11.47;;;2.20;99.90;;;;;;5073810;28;20497;-81
2023/02/15 02:23:30;;;;;;;23.60;11.83;;;2.20;99.90;;;;;;5073138;28;20476;-81
2023/02/15 02:26:29;;;;;;;19.03;10.87;;;2.10;99.90;;;;;;5086673;28;20480;-82
2023/02/15 02:29:22;;;;;;;25.80;13.33;;;2.10;99.90;;;;;;5084321;28;20477;-81
2023/02/15 02:32:09;;;;;;;17.83;11.73;;;2.10;99.90;;;;;;5086393;28;20773;-82
2023/02/15 02:34:43;;;;;;;21.37;11.90;;;2.00;99.90;;;;;;5073331;28;20417;-81
2023/02/15 02:37:21;;;;;;;19.47;13.33;;;2.00;99.90;;;;;;5076669;28;20439;-81
2023/02/15 02:39:56;;;;;;;22.13;13.53;;;2.00;99.90;;;;;;5073881;28;20467;-81
2023/02/15 02:42:30;;;;;;;25.70;12.73;;;2.00;99.90;;;;;;5077037;28;20444;-81
2023/02/15 02:45:04;;;;;;;17.83;11.93;;;2.00;99.90;;;;;;5082042;28;20500;-81
2023/02/15 02:47:34;;;;;;;22.10;12.60;;;2.00;99.90;;;;;;5079621;28;21006;-80
2023/02/15 02:50:05;;;;;;;23.03;12.50;;;1.90;99.90;;;;;;5086046;28;20466;-82
2023/02/15 02:52:38;;;;;;;21.77;12.93;;;1.90;99.90;;;;;;5086671;28;20485;-82
2023/02/15 02:55:10;;;;;;;21.67;12.17;;;1.90;99.90;;;;;;5076597;28;20511;-84
2023/02/15 02:57:42;;;;;;;19.97;11.57;;;1.90;99.90;;;;;;5077583;28;20479;-84
2023/02/15 03:00:11;;;;;;;24.70;13.03;;;1.90;99.90;;;;;;5078097;28;20499;-83
2023/02/15 03:02:42;;;;;;;21.97;13.27;;;1.80;99.90;;;;;;5094087;28;20420;-82
2023/02/15 03:05:16;;;;;;;19.77;11.87;;;1.80;99.90;;;;;;5097857;28;20467;-83
2023/02/15 03:07:48;;;;;;;21.20;11.33;;;1.80;99.90;;;;;;5096282;28;20475;-84
2023/02/15 03:10:15;;;;;;;20.33;13.23;;;1.80;99.90;;;;;;5090033;28;20559;-83
2023/02/15 03:12:42;;;;;;;20.80;12.43;;;1.80;99.90;;;;;;5091907;28;20481;-85
2023/02/15 03:15:13;;;;;;;20.97;13.53;;;1.80;99.90;;;;;;5094735;28;20830;-82
2023/02/15 03:17:44;;;;;;;20.33;12.03;;;1.80;99.90;;;;;;5092134;28;20497;-84
2023/02/15 03:20:18;;;;;;;19.10;11.27;;;1.80;99.90;;;;;;5086751;28;20463;-83
2023/02/15 03:22:51;;;;;;;23.10;12.07;;;1.80;99.90;;;;;;5091950;28;20925;-83
2023/02/15 03:25:22;;;;;;;20.07;12.47;;;1.80;99.90;;;;;;5091861;28;20502;-84
2023/02/15 03:27:53;;;;;;;23.03;12.63;;;1.70;99.90;;;;;;5091179;28;20466;-83
2023/02/15 03:30:22;;;;;;;20.70;12.33;;;1.70;99.90;;;;;;5085600;28;20487;-83
2023/02/15 03:32:52;;;;;;;20.83;12.50;;;1.70;99.90;;;;;;5090210;28;20478;-83
2023/02/15 03:35:23;;;;;;;22.20;12.77;;;1.70;99.90;;;;;;5090145;28;20461;-82
2023/02/15 03:37:54;;;;;;;22.40;12.73;;;1.70;99.90;;;;;;5090573;28;20465;-83
2023/02/15 03:43:15;;;;;;;21.53;13.13;;;1.70;99.90;;;;;;5079335;28;20413;-83
2023/02/15 03:45:54;;;;;;;22.30;13.73;;;1.70;99.90;;;;;;5082713;28;20813;-82
2023/02/15 03:48:26;;;;;;;21.87;13.20;;;1.70;99.90;;;;;;5085187;28;20433;-84
2023/02/15 03:53:44;;;;;;;21.83;12.20;;;1.70;99.90;;;;;;5086284;28;20463;-82
2023/02/15 03:56:11;;;;;;;20.50;12.70;;;1.70;99.90;;;;;;5083646;28;20493;-84
2023/02/15 04:01:57;;;;;;;27.47;13.73;;;1.60;99.90;;;;;;5064231;28;20457;-84
2023/02/15 04:04:29;;;;;;;24.40;14.30;;;1.60;99.90;;;;;;5063748;28;20439;-82
2023/02/15 04:06:57;;;;;;;23.23;14.10;;;1.60;99.90;;;;;;5072373;28;20291;-84
2023/02/15 04:12:09;;;;;;;25.27;14.13;;;1.60;99.90;;;;;;5084361;28;20235;-83
2023/02/15 04:17:20;;;;;;;20.13;13.23;;;1.60;99.90;;;;;;5079636;28;20428;-85
2023/02/15 04:25:17;;;;;;;23.75;14.43;;;1.50;99.90;;;;;;5066895;28;20224;-84
2023/02/15 04:27:46;;;;;;;23.37;13.80;;;1.50;99.90;;;;;;5076432;28;20220;-83
2023/02/15 04:30:15;;;;;;;21.83;14.20;;;1.50;99.90;;;;;;5079750;28;20614;-84
2023/02/15 04:32:42;;;;;;;28.00;13.50;;;1.50;99.90;;;;;;5082456;28;20457;-84
2023/02/15 04:35:10;;;;;;;21.90;13.20;;;1.50;99.90;;;;;;5084908;28;20538;-84
2023/02/15 04:37:39;;;;;;;25.50;14.63;;;1.40;99.90;;;;;;5068929;28;20463;-85
2023/02/15 04:40:09;;;;;;;22.90;14.50;;;1.50;99.90;;;;;;5073101;28;20493;-84
2023/02/15 04:42:35;;;;;;;24.33;14.60;;;1.40;99.90;;;;;;5081006;28;20436;-84
2023/02/15 04:45:03;;;;;;;21.98;13.90;;;1.40;99.90;;;;;;5084592;28;20447;-85
2023/02/15 04:47:30;;;;;;;25.10;14.45;;;1.40;99.90;;;;;;5080869;28;20220;-83
2023/02/15 04:49:56;;;;;;;24.97;14.97;;;1.40;99.90;;;;;;5077773;28;20216;-85
2023/02/15 04:52:23;;;;;;;22.77;15.50;;;1.40;99.90;;;;;;5078973;28;20516;-82
2023/02/15 04:54:52;;;;;;;25.30;15.27;;;1.40;99.90;;;;;;5080362;28;20464;-84
2023/02/15 04:57:18;;;;;;;25.95;14.60;;;1.40;99.90;;;;;;5081765;28;20429;-82
2023/02/15 04:59:45;;;;;;;28.43;15.07;;;1.40;99.90;;;;;;5070533;28;20237;-82
2023/02/15 05:02:12;;;;;;;24.52;15.13;;;1.40;99.90;;;;;;5073320;28;20455;-82
2023/02/15 05:04:39;;;;;;;23.40;14.17;;;1.40;99.90;;;;;;5076336;28;20287;-82
2023/02/15 05:07:06;;;;;;;28.27;15.60;;;1.40;99.90;;;;;;5062995;28;20572;-82
2023/02/15 05:09:32;;;;;;;23.80;13.93;;;1.50;99.90;;;;;;5059461;28;20528;-81
2023/02/15 05:12:01;;;;;;;23.47;14.20;;;1.40;99.90;;;;;;5072954;28;20871;-82
2023/02/15 05:14:27;;;;;;;25.50;14.77;;;1.40;99.90;;;;;;5076166;28;20463;-83
2023/02/15 05:16:54;;;;;;;24.33;14.70;;;1.30;99.90;;;;;;5071009;28;20202;-80
2023/02/15 05:19:23;;;;;;;26.43;15.10;;;1.40;99.90;;;;;;5059909;28;20880;-82
2023/02/15 05:21:49;;;;;;;24.13;14.20;;;1.40;99.90;;;;;;5057548;28;20507;-82
2023/02/15 05:29:46;;;;;;;26.17;14.20;;;1.30;99.90;;;;;;5061480;28;20823;-80
2023/02/15 05:32:14;;;;;;;22.63;13.77;;;1.30;99.90;;;;;;5074492;28;20500;-81
2023/02/15 05:34:41;;;;;;;24.17;14.70;;;1.30;99.90;;;;;;5075648;28;20447;-81
2023/02/15 05:37:08;;;;;;;26.17;16.37;;;1.30;99.90;;;;;;5078732;28;20453;-80
2023/02/15 05:39:41;;;;;;;23.85;14.15;;;1.30;99.90;;;;;;5082239;28;20429;-81
2023/02/15 05:55:08;;;;;;;25.00;14.27;;;1.30;99.90;;;;;;3836403;22;20492;-82
2023/02/15 05:57:36;;;;;;;24.90;14.83;;;1.30;99.90;;;;;;5043294;28;20437;-82
2023/02/15 06:00:04;;;;;;;29.05;16.45;;;1.30;99.90;;;;;;5042730;28;20423;-83
2023/02/15 06:02:36;;;;;;;23.10;14.73;;;1.30;99.90;;;;;;5043229;28;20210;-82
2023/02/15 06:05:03;;;;;;;28.43;14.77;;;1.30;99.90;;;;;;5042872;28;20575;-82
2023/02/15 06:07:30;;;;;;;26.87;16.20;;;1.30;99.90;;;;;;5042580;28;20488;-82
2023/02/15 06:09:57;;;;;;;24.80;14.67;;;1.20;99.90;;;;;;5042000;28;20440;-82
2023/02/15 06:12:26;;;;;;;27.20;16.13;;;1.20;99.90;;;;;;5042147;28;20443;-82
2023/02/15 06:14:53;;;;;;;30.20;15.07;;;1.30;99.90;;;;;;5042233;28;20480;-83
2023/02/15 06:17:21;;;;;;;25.87;14.77;;;1.20;99.90;;;;;;5041716;28;20483;-82
2023/02/15 06:19:48;;;;;;;23.98;13.98;;;1.20;99.90;;;;;;5042116;28;20472;-82
2023/02/15 06:22:16;;;;;;;20.90;14.70;;;1.20;99.90;;;;;;5041816;28;20217;-82
2023/02/15 06:24:43;;;;;;;24.37;14.47;;;1.20;99.90;;;;;;5041391;28;20484;-81
2023/02/15 06:27:10;;;;;;;26.13;15.43;;;1.20;99.90;;;;;;5037556;28;20588;-84
2023/02/15 06:32:25;;;;;;;23.77;14.80;;;1.20;99.90;;;;;;5042494;28;20210;-84
2023/02/15 06:34:55;;;;;;;27.45;15.57;;;1.20;99.90;;;;;;5040687;28;20457;-87
2023/02/15 06:37:21;;;;;;;25.80;15.13;;;1.20;99.90;;;;;;5043900;28;20212;-85
2023/02/15 06:39:48;;;;;;;28.43;16.33;;;1.20;99.90;;;;;;5042301;28;20469;-84
2023/02/15 06:42:17;;;;;;;26.00;16.67;;;1.20;99.90;;;;;;5042483;28;20464;-84
2023/02/15 06:44:46;;;;;;;28.87;17.40;;;1.20;99.90;;;;;;5042044;28;20233;-84
2023/02/15 06:47:12;;;;;;;25.75;17.23;;;1.20;99.90;;;;;;5042259;28;20523;-85
2023/02/15 06:49:40;;;;;;;27.67;16.20;;;1.20;99.90;;;;;;5042018;28;20589;-83
2023/02/15 06:52:07;;;;;;;31.00;17.25;;;1.20;99.90;;;;;;5044685;28;20459;-83
2023/02/15 06:54:34;;;;;;;30.87;15.30;;;1.20;99.90;;;;;;5043136;28;20266;-84
2023/02/15 06:57:00;;;;;;;31.97;17.40;;;1.10;99.90;;;;;;5043813;28;20824;-83
2023/02/15 06:59:27;;;;;;;27.77;18.73;;;1.20;99.90;;;;;;5044441;28;20456;-84
2023/02/15 07:01:56;;;;;;;25.45;16.65;;;1.10;99.90;;;;;;5042548;28;20419;-83
2023/02/15 07:04:23;;;;;;;29.03;17.53;;;1.10;99.90;;;;;;5041292;28;20317;-83
2023/02/15 07:06:50;;;;;;;27.53;16.27;;;1.20;99.90;;;;;;5043709;28;20442;-85
2023/02/15 07:09:17;;;;;;;29.48;17.85;;;1.20;99.90;;;;;;5041333;28;20464;-83
2023/02/15 07:14:29;;;;;;;25.60;15.77;;;1.30;99.90;;;;;;5037865;28;20287;-82
2023/02/15 07:17:00;;;;;;;25.40;16.27;;;1.30;99.90;;;;;;5040491;28;21251;-82
2023/02/15 07:19:27;;;;;;;30.10;16.17;;;1.40;99.90;;;;;;5038529;28;20451;-84
2023/02/15 07:21:57;;;;;;;24.90;15.50;;;1.50;99.90;;;;;;5040957;28;20475;-82
2023/02/15 07:24:24;;;;;;;30.47;15.60;;;1.50;99.90;;;;;;5036029;28;20539;-82
2023/02/15 07:26:51;;;;;;;25.80;16.03;;;1.50;99.90;;;;;;5040166;28;20499;-85
2023/02/15 07:29:20;;;;;;;30.52;16.73;;;1.60;99.90;;;;;;5028733;28;20519;-85
2023/02/15 07:31:48;;;;;;;32.28;17.00;;;1.60;99.90;;;;;;5038067;28;20655;-84
2023/02/15 07:34:16;;;;;;;29.40;18.10;;;1.70;99.90;;;;;;5036679;28;20305;-85
2023/02/15 07:36:45;;;;;;;30.67;16.47;;;1.70;99.90;;;;;;5028500;28;20416;-83
2023/02/15 07:39:12;;;;;;;26.53;17.20;;;1.70;99.90;;;;;;5038605;28;20464;-83
2023/02/15 07:41:39;;;;;;;25.70;16.63;;;1.80;99.90;;;;;;5039525;28;20518;-82
2023/02/15 07:44:06;;;;;;;29.50;16.47;;;1.90;99.90;;;;;;5039742;28;20456;-83
2023/02/15 07:46:33;;;;;;;28.60;17.87;;;1.90;99.90;;;;;;5038995;28;20555;-83
2023/02/15 07:49:00;;;;;;;27.03;16.53;;;2.00;99.90;;;;;;5039656;28;20516;-84
2023/02/15 07:51:28;;;;;;;29.50;16.80;;;2.10;99.90;;;;;;5039251;28;20440;-83
2023/02/15 07:53:55;;;;;;;29.57;16.83;;;2.20;99.90;;;;;;5039466;28;20477;-83
2023/02/15 07:56:22;;;;;;;28.97;16.87;;;2.30;99.90;;;;;;5038818;28;20448;-85
2023/02/15 07:58:51;;;;;;;35.40;17.07;;;2.40;99.90;;;;;;5039353;28;20933;-83
2023/02/15 08:01:20;;;;;;;27.30;16.40;;;2.40;99.90;;;;;;5035078;28;20905;-83
2023/02/15 08:03:47;;;;;;;25.60;17.93;;;2.50;99.90;;;;;;5038556;28;20496;-83
2023/02/15 08:06:13;;;;;;;30.40;16.53;;;2.60;99.90;;;;;;5037730;28;21890;-85
2023/02/15 08:08:42;;;;;;;26.50;16.60;;;2.70;99.90;;;;;;5038419;28;20502;-85
2023/02/15 08:11:36;;;;;;;26.17;17.80;;;2.80;99.90;;;;;;5003876;28;20473;-83
2023/02/15 08:14:06;;;;;;;27.40;18.07;;;2.90;99.90;;;;;;5040119;28;20537;-85
2023/02/15 08:16:36;;;;;;;29.90;18.20;;;2.90;99.90;;;;;;5041298;28;20904;-83
2023/02/15 08:19:05;;;;;;;29.30;19.60;;;3.00;99.90;;;;;;5041518;28;20776;-84
2023/02/15 08:21:33;;;;;;;32.97;18.03;;;3.10;99.90;;;;;;5040674;28;20463;-84
2023/02/15 08:24:01;;;;;;;30.20;17.93;;;3.20;99.90;;;;;;5040523;28;20485;-84
2023/02/15 08:26:29;;;;;;;28.70;17.93;;;3.30;99.90;;;;;;5041256;28;20489;-82
2023/02/15 08:28:56;;;;;;;37.03;20.03;;;3.40;99.90;;;;;;5041818;28;20849;-83
2023/02/15 08:31:23;;;;;;;27.70;16.77;;;3.50;99.90;;;;;;5040358;28;20544;-85
2023/02/15 08:33:52;;;;;;;31.53;19.20;;;3.50;99.90;;;;;;5041052;28;20468;-82
2023/02/15 08:36:21;;;;;;;31.60;19.40;;;3.60;99.90;;;;;;5037204;28;20492;-83
2023/02/15 08:38:48;;;;;;;33.77;20.00;;;3.70;99.90;;;;;;5040182;28;20467;-81
2023/02/15 08:41:18;;;;;;;28.87;18.57;;;3.80;99.90;;;;;;5041194;28;20459;-81
2023/02/15 08:43:47;;;;;;;31.00;18.10;;;3.90;99.90;;;;;;5045896;28;20464;-81
2023/02/15 08:46:15;;;;;;;32.70;18.67;;;3.90;99.90;;;;;;5041703;28;20524;-84
2023/02/15 08:48:43;;;;;;;32.10;21.90;;;4.10;99.90;;;;;;5051486;28;20536;-84
2023/02/15 08:51:11;;;;;;;27.30;18.70;;;4.10;99.90;;;;;;5051985;28;20478;-83
2023/02/15 08:53:39;;;;;;;33.17;19.30;;;4.30;99.90;;;;;;5053611;28;20544;-83
2023/02/15 08:56:07;;;;;;;31.67;18.07;;;4.40;99.90;;;;;;5052123;28;20447;-82
2023/02/15 08:58:35;;;;;;;31.43;20.90;;;4.50;99.90;;;;;;5049835;28;20447;-86
2023/02/15 09:01:09;;;;;;;31.57;18.27;;;4.60;99.90;;;;;;5047699;28;20536;-81
2023/02/15 09:03:35;;;;;;;34.60;21.13;;;4.80;99.90;;;;;;5050831;28;20454;-83
2023/02/15 09:06:03;;;;;;;30.40;18.87;;;5.20;99.90;;;;;;5042644;28;20457;-83
2023/02/15 09:08:30;;;;;;;41.03;20.77;;;5.40;99.90;;;;;;5051010;28;20568;-83
2023/02/15 09:11:07;;;;;;;29.83;18.73;;;5.60;99.90;;;;;;5049903;28;20885;-83
2023/02/15 09:13:36;;;;;;;31.40;17.87;;;5.90;99.90;;;;;;5052386;28;20425;-83
2023/02/15 09:16:04;;;;;;;26.30;17.83;;;6.20;99.90;;;;;;5053122;28;20444;-84
2023/02/15 09:18:35;;;;;;;34.20;19.40;;;6.40;99.90;;;;;;5052670;28;20514;-80
2023/02/15 09:21:06;;;;;;;30.03;18.90;;;6.70;99.90;;;;;;5051055;28;20461;-85
2023/02/15 09:23:33;;;;;;;23.00;15.77;;;7.40;99.90;;;;;;5047209;28;20472;-82
2023/02/15 09:26:04;;;;;;;26.90;17.13;;;8.30;99.90;;;;;;5050217;28;20445;-86
2023/02/15 09:28:32;;;;;;;23.07;15.97;;;9.00;1.00;;;;;;5047008;28;20479;-84
2023/02/15 09:31:08;;;;;;;23.87;15.27;;;9.60;1.00;;;;;;5050673;28;20469;-84
2023/02/15 09:33:35;;;;;;;22.60;14.97;;;10.10;1.00;;;;;;5044943;28;20433;-85
2023/02/15 09:36:03;;;;;;;21.30;15.20;;;10.60;99.90;;;;;;5046005;28;20491;-86
2023/02/15 09:38:30;;;;;;;20.83;12.87;;;11.40;1.00;;;;;;5040691;28;20489;-84
2023/02/15 09:41:12;;;;;;;25.93;13.87;;;11.90;1.00;;;;;;5042469;28;20449;-85
2023/02/15 09:43:49;;;;;;;16.80;11.93;;;12.00;1.00;;;;;;5043899;28;20548;-85
2023/02/15 09:46:35;;;;;;;18.13;11.40;;;12.30;1.00;;;;;;5045861;28;21065;-85
2023/02/15 09:49:11;;;;;;;23.17;13.90;;;12.70;1.00;;;;;;5040145;28;20502;-84
2023/02/15 09:51:51;;;;;;;19.93;13.37;;;13.00;1.00;;;;;;5046239;28;20517;-85
2023/02/15 09:54:27;;;;;;;26.37;16.80;;;13.30;1.00;;;;;;5039224;28;20554;-83
2023/02/15 09:56:59;;;;;;;22.40;14.80;;;13.30;1.00;;;;;;5045180;28;20461;-82
2023/02/15 09:59:35;;;;;;;19.40;12.87;;;13.10;1.00;;;;;;5052916;28;20436;-87
2023/02/15 10:02:21;;;;;;;23.40;15.07;;;13.30;1.00;;;;;;5054037;28;20473;-86
2023/02/15 10:05:04;;;;;;;25.57;15.60;;;13.60;1.00;;;;;;5053366;28;21043;-80
2023/02/15 10:07:48;;;;;;;23.30;14.10;;;13.70;1.00;;;;;;5042322;28;20425;-82
2023/02/15 10:10:25;;;;;;;22.77;14.20;;;13.70;1.00;;;;;;5052022;28;20827;-84
2023/02/15 10:13:25;;;;;;;22.83;14.17;;;14.20;1.00;;;;;;5052223;28;20517;-87
2023/02/15 10:16:00;;;;;;;20.03;12.17;;;15.40;1.00;;;;;;5035562;28;20447;-83
2023/02/15 10:18:53;;;;;;;18.33;12.17;;;16.20;1.00;;;;;;5043446;28;20488;-84
2023/02/15 10:21:33;;;;;;;16.57;10.77;;;15.60;99.90;;;;;;5044837;28;20567;-83
2023/02/15 10:24:22;;;;;;;19.40;12.07;;;15.40;99.90;;;;;;5047022;28;20987;-85
2023/02/15 10:26:50;;;;;;;19.87;11.33;;;15.50;99.90;;;;;;5042961;28;20481;-82
2023/02/15 10:29:28;;;;;;;16.93;11.17;;;16.00;99.90;;;;;;5044169;28;20553;-83
2023/02/15 10:32:03;;;;;;;19.73;13.60;;;17.00;99.90;;;;;;5044909;28;20479;-84
2023/02/15 10:34:38;;;;;;;16.53;11.97;;;17.00;99.90;;;;;;5044699;28;20976;-84
2023/02/15 10:37:43;;;;;;;19.40;12.50;;;17.10;99.90;;;;;;5045458;28;20510;-85
2023/02/15 10:40:19;;;;;;;14.87;10.63;;;17.40;99.90;;;;;;5008005;28;20464;-81
2023/02/15 10:43:06;;;;;;;19.10;12.13;;;18.00;99.90;;;;;;5039352;28;20896;-81
2023/02/15 10:45:45;;;;;;;17.40;11.20;;;19.00;99.90;;;;;;5040124;28;20478;-81
2023/02/15 10:48:31;;;;;;;18.73;13.00;;;19.70;99.90;;;;;;5044189;28;20444;-80
2023/02/15 10:51:03;;;;;;;16.80;10.77;;;19.50;99.90;;;;;;5039760;28;20524;-79
2023/02/15 10:53:52;;;;;;;18.27;11.10;;;20.30;99.90;;;;;;5042177;28;20438;-79
2023/02/15 10:56:23;;;;;;;16.80;11.53;;;20.40;99.90;;;;;;5042522;28;20461;-79
2023/02/15 10:59:08;;;;;;;15.17;12.13;;;21.20;99.90;;;;;;5044985;28;20535;-80
2023/02/15 11:01:41;;;;;;;14.30;10.50;;;21.80;99.90;;;;;;5037392;28;20441;-81
2023/02/15 11:04:42;;;;;;;16.30;11.07;;;22.60;99.90;;;;;;5036714;28;20472;-80
2023/02/15 11:07:19;;;;;;;15.30;10.57;;;23.30;99.90;;;;;;5036606;28;20460;-81
2023/02/15 11:09:49;;;;;;;12.77;10.07;;;23.50;99.90;;;;;;5036087;28;20900;-81
2023/02/15 11:12:20;;;;;;;15.00;11.30;;;23.70;99.90;;;;;;5035663;28;20854;-80
2023/02/15 11:14:54;;;;;;;15.73;11.33;;;23.50;99.90;;;;;;5036603;28;20469;-82
2023/02/15 11:17:27;;;;;;;13.27;10.97;;;25.10;99.90;;;;;;5040413;28;20544;-80
2023/02/15 11:20:04;;;;;;;13.23;10.07;;;26.70;99.90;;;;;;5040713;28;20449;-80
2023/02/15 11:22:35;;;;;;;12.50;9.97;;;27.10;99.90;;;;;;5042075;28;20433;-80
2023/02/15 11:25:03;;;;;;;15.37;10.50;;;27.50;99.90;;;;;;5041780;28;21012;-81
2023/02/15 11:27:33;;;;;;;12.97;9.60;;;27.90;99.90;;;;;;5041421;28;20452;-80
2023/02/15 11:30:09;;;;;;;14.83;10.67;;;28.30;99.90;;;;;;5041458;28;20952;-81
2023/02/15 11:32:39;;;;;;;12.83;10.60;;;28.00;99.90;;;;;;5039431;28;20437;-81
2023/02/15 11:35:21;;;;;;;13.23;9.63;;;28.20;99.90;;;;;;5040379;28;20472;-80
2023/02/15 11:37:54;;;;;;;13.10;10.47;;;30.00;99.90;;;;;;5041158;28;20422;-80
2023/02/15 11:40:25;;;;;;;13.37;10.43;;;29.40;99.90;;;;;;5040691;28;20457;-81
2023/02/15 11:42:56;;;;;;;12.30;10.43;;;28.70;99.90;;;;;;5039511;28;20445;-81
2023/02/15 11:45:28;;;;;;;15.33;10.90;;;28.70;99.90;;;;;;5039088;28;20587;-82
2023/02/15 11:47:56;;;;;;;12.60;9.57;;;29.70;99.90;;;;;;5038365;28;20967;-81
2023/02/15 11:50:25;;;;;;;11.20;8.37;;;30.40;99.90;;;;;;5038780;28;20459;-82
2023/02/15 11:52:59;;;;;;;9.93;8.13;;;30.10;99.90;;;;;;5038925;28;20480;-82
2023/02/15 11:55:28;;;;;;;10.90;8.10;;;29.90;99.90;;;;;;5047233;22;21029;-82
2023/02/15 11:58:00;;;;;;;10.30;8.70;;;30.00;99.90;;;;;;5018408;28;20524;-84
2023/02/15 12:00:35;;;;;;;11.70;9.03;;;28.10;99.90;;;;;;5019065;28;20527;-85
2023/02/15 12:03:10;;;;;;;11.60;8.23;;;28.70;99.90;;;;;;5032970;28;20468;-83
2023/02/15 12:05:40;;;;;;;10.43;8.10;;;29.30;99.90;;;;;;5040079;28;21007;-83
2023/02/15 12:08:15;;;;;;;10.37;8.20;;;29.90;99.90;;;;;;5026769;28;20465;-85
2023/02/15 12:10:54;;;;;;;9.80;7.40;;;29.80;99.90;;;;;;5019419;28;20433;-84
2023/02/15 12:13:21;;;;;;;11.10;7.80;;;30.30;99.90;;;;;;5010941;28;20821;-82
2023/02/15 12:15:50;;;;;;;12.53;8.70;;;30.20;99.90;;;;;;5017589;28;20473;-84
2023/02/15 12:18:31;;;;;;;10.40;7.87;;;29.60;99.90;;;;;;5020711;28;20484;-84
2023/02/15 12:21:00;;;;;;;11.23;9.10;;;30.50;99.90;;;;;;5014765;28;20472;-85
2023/02/15 12:23:29;;;;;;;11.07;8.47;;;29.20;99.90;;;;;;5015219;28;20898;-84
2023/02/15 12:25:58;;;;;;;10.50;8.33;;;28.50;99.90;;;;;;5017983;28;20469;-82
2023/02/15 12:28:31;;;;;;;11.67;8.50;;;29.40;99.90;;;;;;5038463;28;20453;-83
2023/02/15 12:30:59;;;;;;;11.37;7.33;;;30.40;99.90;;;;;;5028643;28;21009;-84
2023/02/15 12:33:31;;;;;;;9.37;7.20;;;31.50;99.90;;;;;;5038001;28;20464;-84
2023/02/15 12:36:01;;;;;;;12.10;8.77;;;31.80;99.90;;;;;;5040294;28;20579;-84
2023/02/15 12:38:30;;;;;;;13.70;9.60;;;31.60;99.90;;;;;;5030294;28;20553;-85
2023/02/15 12:41:02;;;;;;;11.00;7.83;;;30.30;99.90;;;;;;5025127;28;20492;-84
2023/02/15 12:43:33;;;;;;;14.00;10.00;;;30.20;99.90;;;;;;5005723;28;20558;-84
2023/02/15 12:46:21;;;;;;;10.90;7.93;;;29.30;99.90;;;;;;5010558;28;20495;-84
2023/02/15 12:49:07;;;;;;;12.67;7.87;;;26.60;99.90;;;;;;5027656;28;20472;-83
2023/02/15 12:51:43;;;;;;;14.10;8.97;;;27.30;99.90;;;;;;5026220;28;20486;-82
2023/02/15 12:54:26;;;;;;;14.50;8.03;;;25.60;99.90;;;;;;4998473;28;20460;-82
2023/02/15 12:56:53;;;;;;;8.97;6.77;;;27.00;99.90;;;;;;4999770;28;20469;-83
2023/02/15 12:59:21;;;;;;;11.23;9.10;;;28.10;99.90;;;;;;5013953;28;20477;-85
2023/02/15 13:01:48;;;;;;;11.17;8.40;;;29.10;99.90;;;;;;5037100;28;20468;-84
2023/02/15 13:04:23;;;;;;;12.40;9.10;;;29.00;99.90;;;;;;5005625;28;20446;-84
2023/02/15 13:06:53;;;;;;;11.00;8.27;;;27.20;99.90;;;;;;5002126;28;20513;-84
2023/02/15 13:09:38;;;;;;;13.30;8.70;;;26.00;99.90;;;;;;5015888;28;20443;-83
2023/02/15 13:12:21;;;;;;;15.43;8.90;;;26.90;99.90;;;;;;5015495;28;20473;-84
2023/02/15 13:14:51;;;;;;;12.00;9.17;;;26.40;99.90;;;;;;5017793;28;20489;-86
2023/02/15 13:17:23;;;;;;;10.80;9.20;;;27.30;99.90;;;;;;5018434;28;20532;-84
2023/02/15 13:19:54;;;;;;;11.37;9.43;;;27.80;99.90;;;;;;5018097;28;20474;-84
2023/02/15 13:22:25;;;;;;;14.33;8.73;;;27.70;99.90;;;;;;5018104;28;20485;-83
2023/02/15 13:24:57;;;;;;;16.60;9.67;;;28.90;99.90;;;;;;5025425;28;20489;-85
2023/02/15 13:27:29;;;;;;;13.10;9.20;;;29.10;99.90;;;;;;5017297;28;20465;-84
2023/02/15 13:29:59;;;;;;;10.83;8.73;;;29.70;99.90;;;;;;5017124;28;20458;-83
2023/02/15 13:32:30;;;;;;;12.07;8.57;;;29.60;99.90;;;;;;5018689;28;20500;-84
2023/02/15 13:34:59;;;;;;;13.67;9.83;;;29.90;99.90;;;;;;5000171;28;20979;-84
2023/02/15 13:37:49;;;;;;;13.90;9.23;;;29.60;99.90;;;;;;4996938;28;20469;-84
2023/02/15 13:40:23;;;;;;;11.13;8.20;;;29.80;99.90;;;;;;5004974;28;20959;-85